sensor_id;sensor_type;location;lat;lon;timestamp;P1;durP1;ratioP1;P2;durP2;ratioP2
15693;SDS011;7947;48.834;9.132;2024-03-02T00:01:03;8.40;;;5.00;;
15693;SDS011;7947;48.834;9.132;2024-03-02T00:04:08;7.37;;;5.00;;
15693;SDS011;7947;48.834;9.132;2024-03-02T00:07:14;7.20;;;5.20;;
15693;SDS011;7947;48.834;9.132;2024-03-02T00:10:19;7.10;;;4.83;;
15693;SDS011;7947;48.834;9.132;2024-03-02T00:13:27;9.37;;;5.53;;
15693;SDS011;7947;48.834;9.132;2024-03-02T00:16:33;6.23;;;4.40;;
15693;SDS011;7947;48.834;9.132;2024-03-02T00:19:39;5.80;;;4.67;;
15693;SDS011;7947;48.834;9.132;2024-03-02T00:22:44;6.67;;;4.87;;
15693;SDS011;7947;48.834;9.132;2024-03-02T00:25:53;7.33;;;4.60;;
15693;SDS011;7947;48.834;9.132;2024-03-02T00:28:58;9.30;;;4.80;;
15693;SDS011;7947;48.834;9.132;2024-03-02T00:32:04;7.30;;;4.77;;
15693;SDS011;7947;48.834;9.132;2024-03-02T00:35:18;6.07;;;4.10;;
15693;SDS011;7947;48.834;9.132;2024-03-02T00:38:24;7.10;;;4.63;;
15693;SDS011;7947;48.834;9.132;2024-03-02T00:41:29;8.47;;;5.07;;
15693;SDS011;7947;48.834;9.132;2024-03-02T00:44:35;7.37;;;5.37;;
15693;SDS011;7947;48.834;9.132;2024-03-02T00:47:39;5.70;;;4.67;;
15693;SDS011;7947;48.834;9.132;2024-03-02T00:50:52;4.90;;;4.03;;
15693;SDS011;7947;48.834;9.132;2024-03-02T00:53:58;8.20;;;5.00;;
15693;SDS011;7947;48.834;9.132;2024-03-02T00:57:07;5.40;;;4.20;;
15693;SDS011;7947;48.834;9.132;2024-03-02T01:00:15;8.83;;;4.70;;
15693;SDS011;7947;48.834;9.132;2024-03-02T01:03:20;6.27;;;4.40;;
15693;SDS011;7947;48.834;9.132;2024-03-02T01:06:26;6.97;;;4.63;;
15693;SDS011;7947;48.834;9.132;2024-03-02T01:09:31;8.60;;;4.83;;
15693;SDS011;7947;48.834;9.132;2024-03-02T01:12:36;4.93;;;3.90;;
15693;SDS011;7947;48.834;9.132;2024-03-02T01:15:41;6.77;;;5.03;;
15693;SDS011;7947;48.834;9.132;2024-03-02T01:18:45;6.87;;;5.27;;
15693;SDS011;7947;48.834;9.132;2024-03-02T01:21:52;6.60;;;4.53;;
15693;SDS011;7947;48.834;9.132;2024-03-02T01:24:56;9.13;;;5.50;;
15693;SDS011;7947;48.834;9.132;2024-03-02T01:28:01;9.73;;;5.27;;
15693;SDS011;7947;48.834;9.132;2024-03-02T01:31:05;6.87;;;4.47;;
15693;SDS011;7947;48.834;9.132;2024-03-02T01:34:10;11.57;;;4.80;;
15693;SDS011;7947;48.834;9.132;2024-03-02T01:37:16;7.80;;;4.80;;
15693;SDS011;7947;48.834;9.132;2024-03-02T01:40:21;8.30;;;5.70;;
15693;SDS011;7947;48.834;9.132;2024-03-02T01:43:28;9.23;;;5.27;;
15693;SDS011;7947;48.834;9.132;2024-03-02T01:46:32;12.57;;;5.20;;
15693;SDS011;7947;48.834;9.132;2024-03-02T01:49:38;7.40;;;5.27;;
15693;SDS011;7947;48.834;9.132;2024-03-02T01:52:44;8.40;;;5.33;;
15693;SDS011;7947;48.834;9.132;2024-03-02T01:55:49;6.47;;;4.10;;
15693;SDS011;7947;48.834;9.132;2024-03-02T01:58:53;7.87;;;5.10;;
15693;SDS011;7947;48.834;9.132;2024-03-02T02:01:58;7.63;;;5.20;;
15693;SDS011;7947;48.834;9.132;2024-03-02T02:05:03;6.90;;;5.07;;
15693;SDS011;7947;48.834;9.132;2024-03-02T02:08:09;6.23;;;4.87;;
15693;SDS011;7947;48.834;9.132;2024-03-02T02:11:14;7.10;;;4.93;;
15693;SDS011;7947;48.834;9.132;2024-03-02T02:14:19;7.47;;;4.80;;
15693;SDS011;7947;48.834;9.132;2024-03-02T02:17:24;6.97;;;4.80;;
15693;SDS011;7947;48.834;9.132;2024-03-02T02:20:28;7.03;;;4.67;;
15693;SDS011;7947;48.834;9.132;2024-03-02T02:23:34;9.13;;;5.57;;
15693;SDS011;7947;48.834;9.132;2024-03-02T02:26:40;8.70;;;5.27;;
15693;SDS011;7947;48.834;9.132;2024-03-02T02:29:44;6.53;;;5.07;;
15693;SDS011;7947;48.834;9.132;2024-03-02T02:32:48;8.37;;;5.57;;
15693;SDS011;7947;48.834;9.132;2024-03-02T02:35:53;9.20;;;5.63;;
15693;SDS011;7947;48.834;9.132;2024-03-02T02:39:00;11.83;;;5.57;;
15693;SDS011;7947;48.834;9.132;2024-03-02T02:42:07;10.00;;;5.40;;
15693;SDS011;7947;48.834;9.132;2024-03-02T02:45:11;7.70;;;5.50;;
15693;SDS011;7947;48.834;9.132;2024-03-02T02:48:17;7.30;;;5.27;;
15693;SDS011;7947;48.834;9.132;2024-03-02T02:51:21;7.37;;;4.80;;
15693;SDS011;7947;48.834;9.132;2024-03-02T02:54:28;7.80;;;4.73;;
15693;SDS011;7947;48.834;9.132;2024-03-02T02:57:33;9.13;;;5.30;;
15693;SDS011;7947;48.834;9.132;2024-03-02T03:00:40;10.30;;;5.47;;
15693;SDS011;7947;48.834;9.132;2024-03-02T03:03:46;8.57;;;5.57;;
15693;SDS011;7947;48.834;9.132;2024-03-02T03:06:50;11.77;;;5.87;;
15693;SDS011;7947;48.834;9.132;2024-03-02T03:09:56;8.67;;;5.20;;
15693;SDS011;7947;48.834;9.132;2024-03-02T03:13:01;9.07;;;6.30;;
15693;SDS011;7947;48.834;9.132;2024-03-02T03:16:06;9.67;;;5.53;;
15693;SDS011;7947;48.834;9.132;2024-03-02T03:19:10;7.47;;;5.27;;
15693;SDS011;7947;48.834;9.132;2024-03-02T03:22:16;6.90;;;5.17;;
15693;SDS011;7947;48.834;9.132;2024-03-02T03:25:23;10.83;;;5.97;;
15693;SDS011;7947;48.834;9.132;2024-03-02T03:28:29;9.57;;;5.60;;
15693;SDS011;7947;48.834;9.132;2024-03-02T03:31:33;10.03;;;5.47;;
15693;SDS011;7947;48.834;9.132;2024-03-02T03:34:37;8.60;;;6.00;;
15693;SDS011;7947;48.834;9.132;2024-03-02T03:37:42;9.80;;;5.50;;
15693;SDS011;7947;48.834;9.132;2024-03-02T03:40:48;16.10;;;6.10;;
15693;SDS011;7947;48.834;9.132;2024-03-02T03:43:52;7.67;;;5.47;;
15693;SDS011;7947;48.834;9.132;2024-03-02T03:46:58;9.97;;;5.63;;
15693;SDS011;7947;48.834;9.132;2024-03-02T03:50:04;8.93;;;5.97;;
15693;SDS011;7947;48.834;9.132;2024-03-02T03:53:10;9.27;;;5.53;;
15693;SDS011;7947;48.834;9.132;2024-03-02T03:56:16;9.00;;;5.90;;
15693;SDS011;7947;48.834;9.132;2024-03-02T03:59:20;11.07;;;5.63;;
15693;SDS011;7947;48.834;9.132;2024-03-02T04:02:24;10.30;;;5.80;;
15693;SDS011;7947;48.834;9.132;2024-03-02T04:05:29;9.73;;;5.50;;
15693;SDS011;7947;48.834;9.132;2024-03-02T04:08:34;10.53;;;5.43;;
15693;SDS011;7947;48.834;9.132;2024-03-02T04:11:40;9.60;;;5.40;;
15693;SDS011;7947;48.834;9.132;2024-03-02T04:14:45;8.97;;;5.50;;
15693;SDS011;7947;48.834;9.132;2024-03-02T04:17:50;11.73;;;6.43;;
15693;SDS011;7947;48.834;9.132;2024-03-02T04:20:54;10.00;;;5.60;;
15693;SDS011;7947;48.834;9.132;2024-03-02T04:23:59;11.87;;;6.10;;
15693;SDS011;7947;48.834;9.132;2024-03-02T04:27:05;10.10;;;5.23;;
15693;SDS011;7947;48.834;9.132;2024-03-02T04:30:10;9.97;;;6.10;;
15693;SDS011;7947;48.834;9.132;2024-03-02T04:33:15;9.60;;;6.13;;
15693;SDS011;7947;48.834;9.132;2024-03-02T04:36:20;9.37;;;5.63;;
15693;SDS011;7947;48.834;9.132;2024-03-02T04:39:25;8.87;;;5.50;;
15693;SDS011;7947;48.834;9.132;2024-03-02T04:42:32;10.10;;;5.33;;
15693;SDS011;7947;48.834;9.132;2024-03-02T04:45:37;10.17;;;5.70;;
15693;SDS011;7947;48.834;9.132;2024-03-02T04:48:42;8.50;;;5.83;;
15693;SDS011;7947;48.834;9.132;2024-03-02T04:51:47;10.00;;;5.80;;
15693;SDS011;7947;48.834;9.132;2024-03-02T04:54:52;15.43;;;6.80;;
15693;SDS011;7947;48.834;9.132;2024-03-02T04:58:32;8.60;;;5.77;;
15693;SDS011;7947;48.834;9.132;2024-03-02T05:01:37;10.13;;;6.07;;
15693;SDS011;7947;48.834;9.132;2024-03-02T05:04:42;9.67;;;5.80;;
15693;SDS011;7947;48.834;9.132;2024-03-02T05:07:46;11.83;;;6.20;;
15693;SDS011;7947;48.834;9.132;2024-03-02T05:10:51;13.33;;;6.23;;
15693;SDS011;7947;48.834;9.132;2024-03-02T05:13:57;9.60;;;5.97;;
15693;SDS011;7947;48.834;9.132;2024-03-02T05:17:00;10.07;;;6.40;;
15693;SDS011;7947;48.834;9.132;2024-03-02T05:20:05;10.20;;;6.23;;
15693;SDS011;7947;48.834;9.132;2024-03-02T05:23:10;11.57;;;6.50;;
15693;SDS011;7947;48.834;9.132;2024-03-02T05:26:15;10.87;;;5.30;;
15693;SDS011;7947;48.834;9.132;2024-03-02T05:29:21;9.17;;;5.73;;
15693;SDS011;7947;48.834;9.132;2024-03-02T05:32:26;10.57;;;5.53;;
15693;SDS011;7947;48.834;9.132;2024-03-02T05:35:30;9.83;;;5.97;;
15693;SDS011;7947;48.834;9.132;2024-03-02T05:38:35;8.40;;;5.33;;
15693;SDS011;7947;48.834;9.132;2024-03-02T05:41:39;9.90;;;6.37;;
15693;SDS011;7947;48.834;9.132;2024-03-02T05:44:45;9.43;;;6.03;;
15693;SDS011;7947;48.834;9.132;2024-03-02T05:47:50;12.10;;;6.47;;
15693;SDS011;7947;48.834;9.132;2024-03-02T05:50:54;10.67;;;5.93;;
15693;SDS011;7947;48.834;9.132;2024-03-02T05:53:59;8.87;;;5.97;;
15693;SDS011;7947;48.834;9.132;2024-03-02T05:57:03;8.93;;;5.73;;
15693;SDS011;7947;48.834;9.132;2024-03-02T06:00:32;11.83;;;6.97;;
15693;SDS011;7947;48.834;9.132;2024-03-02T06:03:37;10.57;;;6.67;;
15693;SDS011;7947;48.834;9.132;2024-03-02T06:11:03;9.63;;;5.90;;
15693;SDS011;7947;48.834;9.132;2024-03-02T06:14:08;13.50;;;6.60;;
15693;SDS011;7947;48.834;9.132;2024-03-02T06:17:14;10.10;;;5.77;;
15693;SDS011;7947;48.834;9.132;2024-03-02T06:20:19;12.50;;;6.73;;
15693;SDS011;7947;48.834;9.132;2024-03-02T06:23:23;9.53;;;6.13;;
15693;SDS011;7947;48.834;9.132;2024-03-02T06:26:27;10.80;;;6.00;;
15693;SDS011;7947;48.834;9.132;2024-03-02T06:29:32;11.37;;;6.87;;
15693;SDS011;7947;48.834;9.132;2024-03-02T06:32:38;12.03;;;6.40;;
15693;SDS011;7947;48.834;9.132;2024-03-02T06:35:43;9.73;;;6.33;;
15693;SDS011;7947;48.834;9.132;2024-03-02T06:38:48;12.53;;;7.03;;
15693;SDS011;7947;48.834;9.132;2024-03-02T06:41:52;11.60;;;6.43;;
15693;SDS011;7947;48.834;9.132;2024-03-02T06:44:57;10.87;;;6.27;;
15693;SDS011;7947;48.834;9.132;2024-03-02T06:48:04;10.27;;;6.67;;
15693;SDS011;7947;48.834;9.132;2024-03-02T06:51:09;11.17;;;6.77;;
15693;SDS011;7947;48.834;9.132;2024-03-02T06:54:14;10.83;;;6.13;;
15693;SDS011;7947;48.834;9.132;2024-03-02T06:57:18;9.33;;;5.90;;
15693;SDS011;7947;48.834;9.132;2024-03-02T07:00:23;9.00;;;5.67;;
15693;SDS011;7947;48.834;9.132;2024-03-02T07:03:30;12.63;;;7.13;;
15693;SDS011;7947;48.834;9.132;2024-03-02T07:06:35;12.13;;;6.70;;
15693;SDS011;7947;48.834;9.132;2024-03-02T07:09:39;14.03;;;7.10;;
15693;SDS011;7947;48.834;9.132;2024-03-02T07:12:44;12.50;;;7.50;;
15693;SDS011;7947;48.834;9.132;2024-03-02T07:15:49;12.93;;;7.30;;
15693;SDS011;7947;48.834;9.132;2024-03-02T07:19:26;11.97;;;7.43;;
15693;SDS011;7947;48.834;9.132;2024-03-02T07:22:30;10.83;;;6.37;;
15693;SDS011;7947;48.834;9.132;2024-03-02T07:25:35;11.33;;;6.70;;
15693;SDS011;7947;48.834;9.132;2024-03-02T07:28:42;12.33;;;6.93;;
15693;SDS011;7947;48.834;9.132;2024-03-02T07:31:48;11.57;;;6.77;;
15693;SDS011;7947;48.834;9.132;2024-03-02T07:34:54;9.40;;;6.27;;
15693;SDS011;7947;48.834;9.132;2024-03-02T07:37:59;10.23;;;6.70;;
15693;SDS011;7947;48.834;9.132;2024-03-02T07:41:04;9.13;;;6.17;;
15693;SDS011;7947;48.834;9.132;2024-03-02T07:44:09;10.87;;;6.03;;
15693;SDS011;7947;48.834;9.132;2024-03-02T07:47:16;13.00;;;7.10;;
15693;SDS011;7947;48.834;9.132;2024-03-02T07:50:22;10.20;;;5.87;;
15693;SDS011;7947;48.834;9.132;2024-03-02T07:53:27;10.90;;;6.53;;
15693;SDS011;7947;48.834;9.132;2024-03-02T07:56:33;10.70;;;6.27;;
15693;SDS011;7947;48.834;9.132;2024-03-02T07:59:37;11.70;;;6.00;;
15693;SDS011;7947;48.834;9.132;2024-03-02T08:02:42;9.93;;;5.87;;
15693;SDS011;7947;48.834;9.132;2024-03-02T08:05:49;10.97;;;6.37;;
15693;SDS011;7947;48.834;9.132;2024-03-02T08:08:54;11.50;;;6.60;;
15693;SDS011;7947;48.834;9.132;2024-03-02T08:11:59;10.63;;;5.97;;
15693;SDS011;7947;48.834;9.132;2024-03-02T08:15:04;8.27;;;5.10;;
15693;SDS011;7947;48.834;9.132;2024-03-02T08:18:10;9.90;;;6.00;;
15693;SDS011;7947;48.834;9.132;2024-03-02T08:21:16;7.77;;;5.20;;
15693;SDS011;7947;48.834;9.132;2024-03-02T08:24:21;10.47;;;5.83;;
15693;SDS011;7947;48.834;9.132;2024-03-02T08:27:26;11.37;;;5.70;;
15693;SDS011;7947;48.834;9.132;2024-03-02T08:30:31;13.77;;;6.90;;
15693;SDS011;7947;48.834;9.132;2024-03-02T08:33:35;11.53;;;5.90;;
15693;SDS011;7947;48.834;9.132;2024-03-02T08:36:42;8.67;;;5.17;;
15693;SDS011;7947;48.834;9.132;2024-03-02T08:39:47;8.77;;;5.37;;
15693;SDS011;7947;48.834;9.132;2024-03-02T08:42:53;10.50;;;6.27;;
15693;SDS011;7947;48.834;9.132;2024-03-02T08:45:58;8.17;;;5.50;;
15693;SDS011;7947;48.834;9.132;2024-03-02T08:49:04;7.67;;;5.03;;
15693;SDS011;7947;48.834;9.132;2024-03-02T08:52:10;9.07;;;5.37;;
15693;SDS011;7947;48.834;9.132;2024-03-02T08:55:15;9.10;;;5.37;;
15693;SDS011;7947;48.834;9.132;2024-03-02T08:58:20;12.27;;;6.40;;
15693;SDS011;7947;48.834;9.132;2024-03-02T09:01:25;12.80;;;6.40;;
15693;SDS011;7947;48.834;9.132;2024-03-02T09:04:31;7.13;;;4.67;;
15693;SDS011;7947;48.834;9.132;2024-03-02T09:07:38;13.50;;;5.37;;
15693;SDS011;7947;48.834;9.132;2024-03-02T09:10:40;7.17;;;4.07;;
15693;SDS011;7947;48.834;9.132;2024-03-02T09:13:43;6.77;;;4.00;;
15693;SDS011;7947;48.834;9.132;2024-03-02T09:16:46;6.43;;;3.90;;
15693;SDS011;7947;48.834;9.132;2024-03-02T09:19:49;6.27;;;3.77;;
15693;SDS011;7947;48.834;9.132;2024-03-02T09:22:55;5.57;;;3.37;;
15693;SDS011;7947;48.834;9.132;2024-03-02T09:25:58;4.83;;;3.20;;
15693;SDS011;7947;48.834;9.132;2024-03-02T09:29:01;4.23;;;2.67;;
15693;SDS011;7947;48.834;9.132;2024-03-02T09:32:04;5.63;;;2.93;;
15693;SDS011;7947;48.834;9.132;2024-03-02T09:35:08;5.60;;;2.90;;
15693;SDS011;7947;48.834;9.132;2024-03-02T09:38:12;4.43;;;3.20;;
15693;SDS011;7947;48.834;9.132;2024-03-02T09:41:15;3.90;;;2.90;;
15693;SDS011;7947;48.834;9.132;2024-03-02T09:44:18;4.47;;;3.13;;
15693;SDS011;7947;48.834;9.132;2024-03-02T09:47:21;3.95;;;3.00;;
15693;SDS011;7947;48.834;9.132;2024-03-02T09:50:24;3.65;;;2.40;;
15693;SDS011;7947;48.834;9.132;2024-03-02T09:53:28;4.43;;;2.88;;
15693;SDS011;7947;48.834;9.132;2024-03-02T09:56:34;5.07;;;3.08;;
15693;SDS011;7947;48.834;9.132;2024-03-02T09:59:37;3.97;;;2.92;;
15693;SDS011;7947;48.834;9.132;2024-03-02T10:02:39;3.88;;;2.70;;
15693;SDS011;7947;48.834;9.132;2024-03-02T10:05:42;3.53;;;2.47;;
15693;SDS011;7947;48.834;9.132;2024-03-02T10:08:46;4.72;;;2.72;;
15693;SDS011;7947;48.834;9.132;2024-03-02T10:11:50;3.33;;;2.30;;
15693;SDS011;7947;48.834;9.132;2024-03-02T10:14:55;3.65;;;2.47;;
15693;SDS011;7947;48.834;9.132;2024-03-02T10:18:06;2.85;;;2.00;;
15693;SDS011;7947;48.834;9.132;2024-03-02T10:21:12;4.28;;;2.53;;
15693;SDS011;7947;48.834;9.132;2024-03-02T10:24:17;4.38;;;2.80;;
15693;SDS011;7947;48.834;9.132;2024-03-02T10:27:22;3.85;;;2.40;;
15693;SDS011;7947;48.834;9.132;2024-03-02T10:30:28;2.83;;;2.10;;
15693;SDS011;7947;48.834;9.132;2024-03-02T10:33:31;3.67;;;2.22;;
15693;SDS011;7947;48.834;9.132;2024-03-02T10:36:34;2.05;;;1.77;;
15693;SDS011;7947;48.834;9.132;2024-03-02T10:39:39;8.10;;;2.85;;
15693;SDS011;7947;48.834;9.132;2024-03-02T10:42:43;5.65;;;2.35;;
15693;SDS011;7947;48.834;9.132;2024-03-02T10:45:47;5.82;;;2.55;;
15693;SDS011;7947;48.834;9.132;2024-03-02T10:48:52;3.70;;;2.50;;
15693;SDS011;7947;48.834;9.132;2024-03-02T10:51:54;4.30;;;2.83;;
15693;SDS011;7947;48.834;9.132;2024-03-02T10:54:59;4.60;;;3.33;;
15693;SDS011;7947;48.834;9.132;2024-03-02T10:58:02;4.60;;;3.50;;
15693;SDS011;7947;48.834;9.132;2024-03-02T11:01:08;3.22;;;2.80;;
15693;SDS011;7947;48.834;9.132;2024-03-02T11:04:14;5.90;;;3.25;;
15693;SDS011;7947;48.834;9.132;2024-03-02T11:07:19;5.50;;;3.20;;
15693;SDS011;7947;48.834;9.132;2024-03-02T11:10:26;3.50;;;2.67;;
15693;SDS011;7947;48.834;9.132;2024-03-02T11:13:31;3.28;;;2.50;;
15693;SDS011;7947;48.834;9.132;2024-03-02T11:16:39;3.42;;;2.40;;
15693;SDS011;7947;48.834;9.132;2024-03-02T11:19:42;2.72;;;2.22;;
15693;SDS011;7947;48.834;9.132;2024-03-02T11:22:46;2.97;;;1.85;;
15693;SDS011;7947;48.834;9.132;2024-03-02T11:25:51;2.95;;;2.38;;
15693;SDS011;7947;48.834;9.132;2024-03-02T11:28:54;3.83;;;2.35;;
15693;SDS011;7947;48.834;9.132;2024-03-02T11:31:58;5.95;;;3.03;;
15693;SDS011;7947;48.834;9.132;2024-03-02T11:35:01;3.15;;;2.42;;
15693;SDS011;7947;48.834;9.132;2024-03-02T11:38:05;3.15;;;2.20;;
15693;SDS011;7947;48.834;9.132;2024-03-02T11:41:10;3.08;;;2.00;;
15693;SDS011;7947;48.834;9.132;2024-03-02T11:44:14;3.42;;;1.10;;
15693;SDS011;7947;48.834;9.132;2024-03-02T11:47:17;1.00;;;0.90;;
15693;SDS011;7947;48.834;9.132;2024-03-02T11:50:28;0.88;;;0.88;;
15693;SDS011;7947;48.834;9.132;2024-03-02T11:53:31;0.57;;;0.50;;
15693;SDS011;7947;48.834;9.132;2024-03-02T11:56:38;1.13;;;0.70;;
15693;SDS011;7947;48.834;9.132;2024-03-02T11:59:40;1.02;;;0.80;;
15693;SDS011;7947;48.834;9.132;2024-03-02T12:02:43;2.75;;;0.60;;
15693;SDS011;7947;48.834;9.132;2024-03-02T12:05:50;1.70;;;0.85;;
15693;SDS011;7947;48.834;9.132;2024-03-02T12:08:54;2.28;;;1.27;;
15693;SDS011;7947;48.834;9.132;2024-03-02T12:12:03;3.55;;;1.20;;
15693;SDS011;7947;48.834;9.132;2024-03-02T12:15:07;2.03;;;0.80;;
15693;SDS011;7947;48.834;9.132;2024-03-02T12:18:11;1.40;;;0.88;;
15693;SDS011;7947;48.834;9.132;2024-03-02T12:21:14;0.82;;;0.60;;
15693;SDS011;7947;48.834;9.132;2024-03-02T12:24:16;0.65;;;0.50;;
15693;SDS011;7947;48.834;9.132;2024-03-02T12:27:20;0.90;;;0.60;;
15693;SDS011;7947;48.834;9.132;2024-03-02T12:30:24;1.42;;;0.70;;
15693;SDS011;7947;48.834;9.132;2024-03-02T12:33:29;1.58;;;1.02;;
15693;SDS011;7947;48.834;9.132;2024-03-02T12:36:36;1.42;;;0.88;;
15693;SDS011;7947;48.834;9.132;2024-03-02T12:39:39;1.00;;;0.63;;
15693;SDS011;7947;48.834;9.132;2024-03-02T12:42:43;0.52;;;0.50;;
15693;SDS011;7947;48.834;9.132;2024-03-02T12:45:48;0.93;;;0.75;;
15693;SDS011;7947;48.834;9.132;2024-03-02T12:49:21;0.70;;;0.60;;
15693;SDS011;7947;48.834;9.132;2024-03-02T12:52:59;2.55;;;0.50;;
15693;SDS011;7947;48.834;9.132;2024-03-02T12:56:22;0.63;;;0.43;;
15693;SDS011;7947;48.834;9.132;2024-03-02T12:59:44;2.92;;;0.50;;
15693;SDS011;7947;48.834;9.132;2024-03-02T13:03:29;0.75;;;0.50;;
15693;SDS011;7947;48.834;9.132;2024-03-02T13:06:47;0.95;;;0.40;;
15693;SDS011;7947;48.834;9.132;2024-03-02T13:10:00;0.85;;;0.60;;
15693;SDS011;7947;48.834;9.132;2024-03-02T13:13:17;0.45;;;0.40;;
15693;SDS011;7947;48.834;9.132;2024-03-02T13:17:02;0.60;;;0.38;;
15693;SDS011;7947;48.834;9.132;2024-03-02T13:20:24;0.32;;;0.32;;
15693;SDS011;7947;48.834;9.132;2024-03-02T13:24:38;1.35;;;0.50;;
15693;SDS011;7947;48.834;9.132;2024-03-02T13:28:09;0.95;;;0.70;;
15693;SDS011;7947;48.834;9.132;2024-03-02T13:36:24;1.27;;;0.68;;
15693;SDS011;7947;48.834;9.132;2024-03-02T13:39:59;1.15;;;0.70;;
15693;SDS011;7947;48.834;9.132;2024-03-02T13:43:51;1.13;;;0.68;;
15693;SDS011;7947;48.834;9.132;2024-03-02T13:47:25;0.90;;;0.60;;
15693;SDS011;7947;48.834;9.132;2024-03-02T13:51:04;1.15;;;0.63;;
15693;SDS011;7947;48.834;9.132;2024-03-02T13:58:48;0.85;;;0.73;;
15693;SDS011;7947;48.834;9.132;2024-03-02T14:03:06;0.80;;;0.60;;
15693;SDS011;7947;48.834;9.132;2024-03-02T14:06:46;2.17;;;0.95;;
15693;SDS011;7947;48.834;9.132;2024-03-02T14:10:39;0.80;;;0.57;;
15693;SDS011;7947;48.834;9.132;2024-03-02T14:14:01;2.03;;;0.70;;
15693;SDS011;7947;48.834;9.132;2024-03-02T14:18:17;1.15;;;0.80;;
15693;SDS011;7947;48.834;9.132;2024-03-02T14:22:41;2.80;;;0.63;;
15693;SDS011;7947;48.834;9.132;2024-03-02T14:30:32;1.52;;;0.98;;
15693;SDS011;7947;48.834;9.132;2024-03-02T14:34:37;1.15;;;0.70;;
15693;SDS011;7947;48.834;9.132;2024-03-02T14:38:42;0.70;;;0.60;;
15693;SDS011;7947;48.834;9.132;2024-03-02T14:42:29;1.70;;;0.82;;
15693;SDS011;7947;48.834;9.132;2024-03-02T14:46:30;1.38;;;0.90;;
15693;SDS011;7947;48.834;9.132;2024-03-02T14:49:51;0.95;;;0.73;;
15693;SDS011;7947;48.834;9.132;2024-03-02T14:53:16;1.02;;;0.70;;
15693;SDS011;7947;48.834;9.132;2024-03-02T14:56:30;0.80;;;0.55;;
15693;SDS011;7947;48.834;9.132;2024-03-02T15:03:51;1.42;;;0.90;;
15693;SDS011;7947;48.834;9.132;2024-03-02T15:07:31;1.60;;;0.85;;
15693;SDS011;7947;48.834;9.132;2024-03-02T15:11:03;1.75;;;0.95;;
15693;SDS011;7947;48.834;9.132;2024-03-02T15:15:01;1.10;;;0.68;;
15693;SDS011;7947;48.834;9.132;2024-03-02T15:41:20;1.48;;;1.13;;
15693;SDS011;7947;48.834;9.132;2024-03-02T16:12:32;1.95;;;1.20;;
15693;SDS011;7947;48.834;9.132;2024-03-02T16:15:46;1.08;;;0.82;;
15693;SDS011;7947;48.834;9.132;2024-03-02T16:18:56;1.50;;;0.95;;
15693;SDS011;7947;48.834;9.132;2024-03-02T16:22:34;1.05;;;0.75;;
15693;SDS011;7947;48.834;9.132;2024-03-02T16:25:59;2.13;;;0.90;;
15693;SDS011;7947;48.834;9.132;2024-03-02T16:37:22;1.42;;;0.93;;
15693;SDS011;7947;48.834;9.132;2024-03-02T16:40:32;1.52;;;1.00;;
15693;SDS011;7947;48.834;9.132;2024-03-02T16:44:18;1.90;;;1.15;;
15693;SDS011;7947;48.834;9.132;2024-03-02T16:47:39;1.90;;;1.08;;
15693;SDS011;7947;48.834;9.132;2024-03-02T16:51:08;2.17;;;1.30;;
15693;SDS011;7947;48.834;9.132;2024-03-02T16:54:47;2.45;;;1.27;;
15693;SDS011;7947;48.834;9.132;2024-03-02T16:58:57;2.42;;;1.38;;
15693;SDS011;7947;48.834;9.132;2024-03-02T17:02:49;2.13;;;1.73;;
15693;SDS011;7947;48.834;9.132;2024-03-02T17:10:34;4.05;;;1.90;;
15693;SDS011;7947;48.834;9.132;2024-03-02T17:14:40;4.95;;;1.85;;
15693;SDS011;7947;48.834;9.132;2024-03-02T17:18:28;2.00;;;1.80;;
15693;SDS011;7947;48.834;9.132;2024-03-02T17:22:18;2.95;;;1.98;;
15693;SDS011;7947;48.834;9.132;2024-03-02T17:30:10;4.07;;;1.90;;
15693;SDS011;7947;48.834;9.132;2024-03-02T17:33:50;3.72;;;1.80;;
15693;SDS011;7947;48.834;9.132;2024-03-02T17:37:50;3.55;;;2.05;;
15693;SDS011;7947;48.834;9.132;2024-03-02T17:41:48;2.80;;;2.20;;
15693;SDS011;7947;48.834;9.132;2024-03-02T17:53:36;4.95;;;2.45;;
15693;SDS011;7947;48.834;9.132;2024-03-02T17:57:02;4.85;;;2.63;;
15693;SDS011;7947;48.834;9.132;2024-03-02T18:00:39;4.75;;;3.33;;
15693;SDS011;7947;48.834;9.132;2024-03-02T18:08:25;4.70;;;3.03;;
15693;SDS011;7947;48.834;9.132;2024-03-02T18:12:15;6.40;;;3.30;;
15693;SDS011;7947;48.834;9.132;2024-03-02T18:19:25;5.75;;;3.53;;
15693;SDS011;7947;48.834;9.132;2024-03-02T18:22:39;6.75;;;3.65;;
15693;SDS011;7947;48.834;9.132;2024-03-02T18:25:45;4.65;;;3.75;;
15693;SDS011;7947;48.834;9.132;2024-03-02T18:28:53;7.68;;;3.72;;
15693;SDS011;7947;48.834;9.132;2024-03-02T18:32:01;6.43;;;4.40;;
15693;SDS011;7947;48.834;9.132;2024-03-02T18:35:08;6.72;;;4.80;;
15693;SDS011;7947;48.834;9.132;2024-03-02T18:38:14;9.02;;;4.93;;
15693;SDS011;7947;48.834;9.132;2024-03-02T18:41:20;8.27;;;5.25;;
15693;SDS011;7947;48.834;9.132;2024-03-02T18:44:30;12.50;;;6.50;;
15693;SDS011;7947;48.834;9.132;2024-03-02T18:47:35;8.88;;;5.07;;
15693;SDS011;7947;48.834;9.132;2024-03-02T18:50:39;11.48;;;6.82;;
15693;SDS011;7947;48.834;9.132;2024-03-02T18:53:42;9.82;;;5.70;;
15693;SDS011;7947;48.834;9.132;2024-03-02T18:56:46;8.98;;;5.82;;
15693;SDS011;7947;48.834;9.132;2024-03-02T18:59:50;10.95;;;6.10;;
15693;SDS011;7947;48.834;9.132;2024-03-02T19:02:53;13.05;;;6.32;;
15693;SDS011;7947;48.834;9.132;2024-03-02T19:05:56;7.85;;;5.28;;
15693;SDS011;7947;48.834;9.132;2024-03-02T19:08:59;6.57;;;4.95;;
15693;SDS011;7947;48.834;9.132;2024-03-02T19:12:02;6.90;;;4.60;;
15693;SDS011;7947;48.834;9.132;2024-03-02T19:15:07;10.00;;;5.70;;
15693;SDS011;7947;48.834;9.132;2024-03-02T19:18:12;10.68;;;5.30;;
15693;SDS011;7947;48.834;9.132;2024-03-02T19:21:15;10.43;;;6.45;;
15693;SDS011;7947;48.834;9.132;2024-03-02T19:24:18;10.70;;;5.93;;
15693;SDS011;7947;48.834;9.132;2024-03-02T19:27:21;10.05;;;6.25;;
15693;SDS011;7947;48.834;9.132;2024-03-02T19:30:25;9.93;;;6.20;;
15693;SDS011;7947;48.834;9.132;2024-03-02T19:33:28;10.15;;;6.47;;
15693;SDS011;7947;48.834;9.132;2024-03-02T19:36:31;11.10;;;6.47;;
15693;SDS011;7947;48.834;9.132;2024-03-02T19:39:34;10.52;;;6.25;;
15693;SDS011;7947;48.834;9.132;2024-03-02T19:42:43;11.75;;;6.88;;
15693;SDS011;7947;48.834;9.132;2024-03-02T19:45:49;12.43;;;6.85;;
15693;SDS011;7947;48.834;9.132;2024-03-02T19:48:52;11.05;;;6.97;;
15693;SDS011;7947;48.834;9.132;2024-03-02T19:51:55;10.70;;;6.95;;
15693;SDS011;7947;48.834;9.132;2024-03-02T19:54:58;11.90;;;7.65;;
15693;SDS011;7947;48.834;9.132;2024-03-02T19:58:03;12.57;;;7.57;;
15693;SDS011;7947;48.834;9.132;2024-03-02T20:01:07;12.98;;;7.45;;
15693;SDS011;7947;48.834;9.132;2024-03-02T20:04:11;14.65;;;8.05;;
15693;SDS011;7947;48.834;9.132;2024-03-02T20:07:14;16.42;;;7.07;;
15693;SDS011;7947;48.834;9.132;2024-03-02T20:10:17;13.60;;;7.95;;
15693;SDS011;7947;48.834;9.132;2024-03-02T20:13:21;12.15;;;7.60;;
15693;SDS011;7947;48.834;9.132;2024-03-02T20:16:25;16.52;;;8.57;;
15693;SDS011;7947;48.834;9.132;2024-03-02T20:19:28;13.52;;;8.20;;
15693;SDS011;7947;48.834;9.132;2024-03-02T20:22:31;14.33;;;8.37;;
15693;SDS011;7947;48.834;9.132;2024-03-02T20:25:34;16.40;;;8.52;;
15693;SDS011;7947;48.834;9.132;2024-03-02T20:28:38;16.40;;;9.02;;
15693;SDS011;7947;48.834;9.132;2024-03-02T20:31:42;12.40;;;8.15;;
15693;SDS011;7947;48.834;9.132;2024-03-02T20:34:45;17.85;;;9.45;;
15693;SDS011;7947;48.834;9.132;2024-03-02T20:37:48;15.18;;;9.00;;
15693;SDS011;7947;48.834;9.132;2024-03-02T20:40:51;15.23;;;9.20;;
15693;SDS011;7947;48.834;9.132;2024-03-02T20:43:54;15.05;;;9.05;;
15693;SDS011;7947;48.834;9.132;2024-03-02T20:46:58;16.87;;;9.60;;
15693;SDS011;7947;48.834;9.132;2024-03-02T20:50:01;18.63;;;10.23;;
15693;SDS011;7947;48.834;9.132;2024-03-02T20:53:04;13.73;;;8.87;;
15693;SDS011;7947;48.834;9.132;2024-03-02T20:56:09;16.93;;;9.57;;
15693;SDS011;7947;48.834;9.132;2024-03-02T20:59:11;17.70;;;9.43;;
15693;SDS011;7947;48.834;9.132;2024-03-02T21:02:15;17.73;;;10.07;;
15693;SDS011;7947;48.834;9.132;2024-03-02T21:05:19;17.23;;;10.87;;
15693;SDS011;7947;48.834;9.132;2024-03-02T21:08:22;15.60;;;9.10;;